Time;durP1;ratioP1;P1;durP2;ratioP2;P2;SDS_P1;SDS_P2;PMS_P1;PMS_P2;Temp;Humidity;BMP_temperature;BMP_pressure;BME280_temperature;BME280_humidity;BME280_pressure;Samples;Min_cycle;Max_cycle;Signal;HPM_P1;HPM_P2
2023/05/24 00:01:25;;;;;;;2.17;0.63;;;;;;;;;;4962114;28;92027;-50
2023/05/24 00:03:57;;;;;;;3.47;0.80;;;;;;;;;;4961977;28;93225;-50
2023/05/24 00:06:26;;;;;;;1.40;1.00;;;;;;;;;;4962388;28;92761;-50
2023/05/24 00:08:56;;;;;;;0.40;0.40;;;;;;;;;;4962356;28;92071;-50
2023/05/24 00:11:26;;;;;;;1.17;0.63;;;;;;;;;;4961904;28;92055;-51
2023/05/24 00:13:54;;;;;;;1.57;0.60;;;;;;;;;;4961922;28;94302;-50
2023/05/24 00:16:23;;;;;;;3.70;0.70;;;;;;;;;;4961825;28;94071;-51
2023/05/24 00:18:51;;;;;;;1.37;0.60;;;;;;;;;;4962279;28;92048;-50
2023/05/24 00:21:19;;;;;;;0.90;0.50;;;;;;;;;;4961931;28;92089;-50
2023/05/24 00:23:50;;;;;;;0.67;0.57;;;;;;;;;;4961352;28;95159;-50
2023/05/24 00:26:20;;;;;;;2.87;0.80;;;;;;;;;;4960625;28;95018;-50
2023/05/24 00:28:48;;;;;;;1.73;0.60;;;;;;;;;;4961914;28;92179;-50
2023/05/24 00:31:17;;;;;;;1.07;0.60;;;;;;;;;;4961333;28;92097;-50
2023/05/24 00:33:45;;;;;;;1.47;0.83;;;;;;;;;;4941840;28;94206;-51
2023/05/24 00:36:15;;;;;;;2.73;0.70;;;;;;;;;;4942130;28;92917;-51
2023/05/24 00:38:43;;;;;;;3.70;0.80;;;;;;;;;;4942351;28;92182;-51
2023/05/24 00:41:11;;;;;;;0.60;0.50;;;;;;;;;;4942721;28;91331;-51
2023/05/24 00:43:42;;;;;;;0.60;0.40;;;;;;;;;;4943113;28;94306;-51
2023/05/24 00:46:15;;;;;;;0.97;0.57;;;;;;;;;;4961776;28;93999;-50
2023/05/24 00:48:43;;;;;;;0.43;0.43;;;;;;;;;;4960929;28;93061;-50
2023/05/24 00:51:12;;;;;;;1.17;0.70;;;;;;;;;;4961476;28;92053;-51
2023/05/24 00:53:40;;;;;;;3.83;0.70;;;;;;;;;;4961317;28;94275;-50
2023/05/24 00:56:09;;;;;;;2.33;0.73;;;;;;;;;;4973987;28;93884;-50
2023/05/24 00:58:37;;;;;;;0.47;0.47;;;;;;;;;;4981191;28;92207;-51
2023/05/24 01:01:07;;;;;;;0.73;0.53;;;;;;;;;;4980915;28;92022;-51
2023/05/24 01:03:35;;;;;;;0.73;0.50;;;;;;;;;;4976107;28;93128;-50
2023/05/24 01:06:05;;;;;;;1.43;0.63;;;;;;;;;;4960890;28;93929;-50
2023/05/24 01:08:42;;;;;;;2.67;1.07;;;;;;;;;;4960711;28;92102;-50
2023/05/24 01:11:13;;;;;;;1.53;0.70;;;;;;;;;;4961328;28;91917;-50
2023/05/24 01:13:46;;;;;;;2.67;0.57;;;;;;;;;;4959965;28;95454;-51
2023/05/24 01:16:18;;;;;;;0.50;0.50;;;;;;;;;;4960924;28;94622;-50
2023/05/24 01:18:47;;;;;;;1.90;0.60;;;;;;;;;;4961471;28;92069;-50
2023/05/24 01:21:17;;;;;;;3.37;0.80;;;;;;;;;;4961102;28;92117;-51
2023/05/24 01:23:46;;;;;;;1.73;0.83;;;;;;;;;;4960741;28;94389;-50
2023/05/24 01:26:29;;;;;;;0.60;0.60;;;;;;;;;;4960144;28;92869;-50
2023/05/24 01:28:59;;;;;;;1.27;0.53;;;;;;;;;;4954404;28;92500;-50
2023/05/24 01:31:27;;;;;;;2.33;0.80;;;;;;;;;;4960663;28;91440;-50
2023/05/24 01:33:56;;;;;;;2.70;0.90;;;;;;;;;;4959462;28;94221;-50
2023/05/24 01:36:24;;;;;;;0.73;0.53;;;;;;;;;;4958748;28;94150;-50
2023/05/24 01:38:52;;;;;;;2.30;0.60;;;;;;;;;;4959127;28;93782;-50
2023/05/24 01:41:26;;;;;;;2.20;0.73;;;;;;;;;;4959813;28;92157;-50
2023/05/24 01:43:56;;;;;;;4.20;0.70;;;;;;;;;;4960505;28;94136;-50
2023/05/24 01:46:30;;;;;;;1.27;0.67;;;;;;;;;;4959854;28;94017;-50
2023/05/24 01:49:01;;;;;;;3.30;1.00;;;;;;;;;;4960454;28;91956;-50
2023/05/24 01:51:31;;;;;;;0.70;0.50;;;;;;;;;;4959821;28;92164;-50
2023/05/24 01:53:59;;;;;;;4.17;0.50;;;;;;;;;;4959269;28;94282;-50
2023/05/24 01:56:28;;;;;;;2.13;0.60;;;;;;;;;;4959009;28;92794;-50
2023/05/24 01:58:56;;;;;;;0.30;0.30;;;;;;;;;;4960208;28;92110;-50
2023/05/24 02:01:24;;;;;;;1.33;0.53;;;;;;;;;;4959723;28;92078;-50
2023/05/24 02:03:54;;;;;;;0.27;0.27;;;;;;;;;;4959240;28;95173;-50
2023/05/24 02:06:22;;;;;;;0.60;0.40;;;;;;;;;;4960082;28;93720;-50
2023/05/24 02:08:52;;;;;;;0.60;0.53;;;;;;;;;;4960424;28;91952;-50
2023/05/24 02:11:21;;;;;;;0.60;0.50;;;;;;;;;;4959929;28;92427;-50
2023/05/24 02:13:50;;;;;;;2.40;1.00;;;;;;;;;;4959382;28;94183;-50
2023/05/24 02:16:18;;;;;;;1.00;0.50;;;;;;;;;;4959822;28;93755;-50
2023/05/24 02:18:46;;;;;;;0.87;0.57;;;;;;;;;;4960262;28;93114;-50
2023/05/24 02:21:16;;;;;;;0.70;0.30;;;;;;;;;;4960805;28;91324;-50
2023/05/24 02:23:45;;;;;;;1.20;0.40;;;;;;;;;;4960066;28;94375;-50
2023/05/24 02:26:13;;;;;;;4.07;0.70;;;;;;;;;;4959971;28;93955;-50
2023/05/24 02:28:41;;;;;;;0.43;0.40;;;;;;;;;;4959830;28;93221;-50
2023/05/24 02:31:10;;;;;;;0.80;0.50;;;;;;;;;;4959316;28;92002;-50
2023/05/24 02:33:39;;;;;;;1.13;0.53;;;;;;;;;;4959348;28;94122;-50
2023/05/24 02:36:07;;;;;;;1.10;0.47;;;;;;;;;;4959317;28;93711;-50
2023/05/24 02:38:38;;;;;;;2.40;0.70;;;;;;;;;;4959810;28;91924;-50
2023/05/24 02:41:07;;;;;;;1.13;0.30;;;;;;;;;;4960078;28;92101;-50
2023/05/24 02:43:36;;;;;;;1.03;0.80;;;;;;;;;;4958810;28;94143;-50
2023/05/24 02:46:04;;;;;;;5.63;0.87;;;;;;;;;;4960153;28;93985;-50
2023/05/24 02:48:32;;;;;;;0.83;0.40;;;;;;;;;;4959555;28;92051;-50
2023/05/24 02:51:02;;;;;;;3.20;0.80;;;;;;;;;;4960205;28;92130;-50
2023/05/24 02:53:30;;;;;;;1.00;0.47;;;;;;;;;;4959269;28;95247;-50
2023/05/24 02:56:00;;;;;;;1.70;0.63;;;;;;;;;;4959258;28;94928;-50
2023/05/24 02:58:29;;;;;;;3.90;0.70;;;;;;;;;;4978747;28;92128;-50
2023/05/24 03:00:57;;;;;;;0.73;0.50;;;;;;;;;;4979453;28;92224;-50
2023/05/24 03:03:25;;;;;;;1.27;0.83;;;;;;;;;;4967678;28;94265;-50
2023/05/24 03:05:54;;;;;;;1.90;0.60;;;;;;;;;;4958451;28;93853;-50
2023/05/24 03:08:22;;;;;;;3.70;0.73;;;;;;;;;;4961456;28;92079;-50
2023/05/24 03:10:51;;;;;;;1.07;0.50;;;;;;;;;;4963160;28;91369;-50
2023/05/24 03:13:20;;;;;;;3.97;0.80;;;;;;;;;;4962180;28;94329;-50
2023/05/24 03:15:49;;;;;;;10.30;0.70;;;;;;;;;;4961913;28;94158;-50
2023/05/24 03:18:17;;;;;;;2.20;0.67;;;;;;;;;;4962264;28;93071;-50
2023/05/24 03:20:46;;;;;;;1.93;0.50;;;;;;;;;;4962519;28;92072;-50
2023/05/24 03:23:15;;;;;;;2.80;0.47;;;;;;;;;;4961456;28;94486;-50
2023/05/24 03:25:43;;;;;;;0.77;0.63;;;;;;;;;;4961739;28;94279;-49
2023/05/24 03:28:13;;;;;;;2.43;0.63;;;;;;;;;;4962141;28;92046;-50
2023/05/24 03:30:43;;;;;;;4.13;0.77;;;;;;;;;;4962616;28;92116;-50
2023/05/24 03:33:12;;;;;;;3.60;0.83;;;;;;;;;;4950882;28;94205;-50
2023/05/24 03:35:40;;;;;;;0.37;0.37;;;;;;;;;;4962208;28;94090;-50
2023/05/24 03:38:08;;;;;;;2.00;0.67;;;;;;;;;;4962812;28;92085;-50
2023/05/24 03:40:37;;;;;;;1.83;0.70;;;;;;;;;;4961784;28;92211;-51
2023/05/24 03:43:05;;;;;;;0.83;0.60;;;;;;;;;;4961047;28;95499;-50
2023/05/24 03:45:34;;;;;;;1.53;0.90;;;;;;;;;;4961649;28;95161;-50
2023/05/24 03:48:08;;;;;;;1.27;0.40;;;;;;;;;;4961156;28;92107;-50
2023/05/24 03:50:37;;;;;;;1.13;0.63;;;;;;;;;;4961803;28;92187;-50
2023/05/24 03:53:05;;;;;;;1.47;0.90;;;;;;;;;;4961034;28;93116;-50
2023/05/24 03:55:33;;;;;;;1.80;0.50;;;;;;;;;;4961666;28;94180;-50
2023/05/24 03:58:02;;;;;;;0.80;0.57;;;;;;;;;;4961640;28;92170;-50
2023/05/24 04:00:30;;;;;;;6.43;1.07;;;;;;;;;;4961719;28;91281;-50
2023/05/24 04:02:58;;;;;;;1.70;0.73;;;;;;;;;;4961635;28;94321;-50
2023/05/24 04:05:28;;;;;;;0.90;0.50;;;;;;;;;;4961100;28;93942;-50
2023/05/24 04:07:57;;;;;;;1.47;0.70;;;;;;;;;;4960829;28;93073;-50
2023/05/24 04:10:25;;;;;;;2.60;0.60;;;;;;;;;;4961326;28;91972;-50
2023/05/24 04:12:55;;;;;;;1.57;0.67;;;;;;;;;;4960236;28;94274;-50
2023/05/24 04:15:24;;;;;;;0.93;0.50;;;;;;;;;;4961228;28;93702;-50
2023/05/24 04:17:53;;;;;;;1.97;0.67;;;;;;;;;;4961517;28;92110;-50
2023/05/24 04:20:24;;;;;;;2.73;0.47;;;;;;;;;;4960875;28;92169;-50
2023/05/24 04:22:54;;;;;;;1.80;0.50;;;;;;;;;;4960331;28;94131;-50
2023/05/24 04:25:23;;;;;;;1.33;0.40;;;;;;;;;;4960947;28;94051;-50
2023/05/24 04:27:52;;;;;;;5.73;0.70;;;;;;;;;;4962035;28;92034;-50
2023/05/24 04:30:21;;;;;;;1.50;0.50;;;;;;;;;;4961890;28;92098;-50
2023/05/24 04:32:50;;;;;;;1.63;0.50;;;;;;;;;;4961162;28;95116;-50
2023/05/24 04:35:19;;;;;;;1.17;0.63;;;;;;;;;;4961348;28;94729;-50
2023/05/24 04:37:48;;;;;;;2.50;0.53;;;;;;;;;;4962037;28;91916;-50
2023/05/24 04:40:19;;;;;;;5.53;0.90;;;;;;;;;;4960971;28;91906;-51
2023/05/24 04:42:48;;;;;;;1.53;0.60;;;;;;;;;;4961473;28;94338;-50
2023/05/24 04:45:16;;;;;;;2.20;0.60;;;;;;;;;;4941868;28;93059;-50
2023/05/24 04:47:44;;;;;;;1.13;0.40;;;;;;;;;;4961513;28;92039;-50
2023/05/24 04:50:13;;;;;;;0.70;0.40;;;;;;;;;;4962253;28;91339;-50
2023/05/24 04:52:42;;;;;;;1.50;0.53;;;;;;;;;;4960900;28;94245;-50
2023/05/24 04:55:10;;;;;;;2.17;0.47;;;;;;;;;;4963220;28;92781;-50
2023/05/24 04:57:40;;;;;;;1.53;0.80;;;;;;;;;;4961334;28;93036;-50
2023/05/24 05:00:09;;;;;;;0.50;0.50;;;;;;;;;;4961251;28;91971;-50
2023/05/24 05:02:37;;;;;;;0.87;0.50;;;;;;;;;;4960874;28;93920;-50
2023/05/24 05:05:06;;;;;;;0.97;0.87;;;;;;;;;;4959737;28;93930;-50
2023/05/24 05:07:35;;;;;;;1.43;0.80;;;;;;;;;;4952085;28;92177;-50
2023/05/24 05:10:03;;;;;;;0.60;0.50;;;;;;;;;;4960237;28;92091;-50
2023/05/24 05:12:31;;;;;;;1.33;0.40;;;;;;;;;;4959929;28;93352;-50
2023/05/24 05:15:01;;;;;;;5.17;0.97;;;;;;;;;;4960919;28;93930;-50
2023/05/24 05:17:30;;;;;;;2.23;0.80;;;;;;;;;;4961128;28;92227;-50
2023/05/24 05:19:58;;;;;;;1.53;0.70;;;;;;;;;;4959733;28;92463;-50
2023/05/24 05:22:27;;;;;;;3.70;0.60;;;;;;;;;;4958971;28;95107;-50
2023/05/24 05:24:58;;;;;;;3.00;0.60;;;;;;;;;;4959092;28;94884;-50
2023/05/24 05:27:26;;;;;;;2.03;0.70;;;;;;;;;;4960462;28;92158;-50
2023/05/24 05:29:55;;;;;;;1.47;0.83;;;;;;;;;;4959749;28;93954;-50
2023/05/24 05:32:24;;;;;;;2.20;0.53;;;;;;;;;;4959814;28;94435;-50
2023/05/24 05:34:53;;;;;;;6.80;0.70;;;;;;;;;;4959368;28;93902;-50
2023/05/24 05:37:21;;;;;;;0.80;0.70;;;;;;;;;;4960194;28;92017;-50
2023/05/24 05:39:49;;;;;;;1.77;0.60;;;;;;;;;;4960792;28;91379;-50
2023/05/24 05:42:18;;;;;;;2.87;0.50;;;;;;;;;;4950323;28;94263;-50
2023/05/24 05:44:46;;;;;;;2.23;0.83;;;;;;;;;;4959761;28;93930;-50
2023/05/24 05:47:15;;;;;;;0.53;0.37;;;;;;;;;;4959789;28;93034;-50
2023/05/24 05:49:44;;;;;;;1.13;0.90;;;;;;;;;;4960255;28;91942;-50
2023/05/24 05:52:13;;;;;;;1.80;0.60;;;;;;;;;;4959490;28;94277;-50
2023/05/24 05:54:41;;;;;;;1.90;0.80;;;;;;;;;;4959373;28;93989;-50
2023/05/24 05:57:10;;;;;;;2.53;0.77;;;;;;;;;;4959304;28;92137;-50
2023/05/24 05:59:38;;;;;;;0.73;0.50;;;;;;;;;;4960647;28;92487;-50
2023/05/24 06:02:07;;;;;;;2.40;0.90;;;;;;;;;;4958806;28;94410;-50
2023/05/24 06:04:35;;;;;;;2.40;0.43;;;;;;;;;;4959988;28;93807;-50
2023/05/24 06:07:05;;;;;;;1.77;0.33;;;;;;;;;;4959895;28;91909;-50
2023/05/24 06:09:34;;;;;;;2.00;0.80;;;;;;;;;;4958786;28;92054;-50
2023/05/24 06:12:02;;;;;;;0.50;0.50;;;;;;;;;;4958324;28;95332;-50
2023/05/24 06:14:31;;;;;;;1.13;0.90;;;;;;;;;;4959298;28;94918;-50
2023/05/24 06:16:59;;;;;;;2.47;0.60;;;;;;;;;;4959358;28;93819;-50
2023/05/24 06:19:28;;;;;;;1.47;0.80;;;;;;;;;;4959067;28;92063;-50
2023/05/24 06:21:56;;;;;;;1.03;0.57;;;;;;;;;;4959794;28;94188;-50
2023/05/24 06:24:27;;;;;;;1.33;0.50;;;;;;;;;;4959292;28;93875;-50
2023/05/24 06:26:55;;;;;;;1.90;0.40;;;;;;;;;;4959177;28;92134;-51
2023/05/24 06:29:24;;;;;;;2.20;0.90;;;;;;;;;;4960746;28;91190;-50
2023/05/24 06:31:52;;;;;;;3.60;0.93;;;;;;;;;;4959392;28;94636;-50
2023/05/24 06:34:21;;;;;;;1.13;0.60;;;;;;;;;;4956872;28;93990;-50
2023/05/24 06:36:50;;;;;;;1.30;0.40;;;;;;;;;;4959391;28;93033;-50
2023/05/24 06:39:19;;;;;;;1.97;0.60;;;;;;;;;;4959805;28;92099;-50
2023/05/24 06:41:50;;;;;;;4.80;0.70;;;;;;;;;;4957865;28;94205;-50
2023/05/24 06:44:18;;;;;;;2.70;0.73;;;;;;;;;;4958727;28;93965;-50
2023/05/24 06:46:47;;;;;;;3.93;0.90;;;;;;;;;;4959749;28;92018;-50
2023/05/24 06:49:15;;;;;;;0.93;0.43;;;;;;;;;;4959486;28;92124;-50
2023/05/24 06:51:44;;;;;;;1.47;0.90;;;;;;;;;;4959477;28;94118;-50
2023/05/24 06:54:14;;;;;;;1.23;0.60;;;;;;;;;;4966226;28;93807;-50
2023/05/24 06:56:42;;;;;;;4.20;1.27;;;;;;;;;;4959745;28;92196;-50
2023/05/24 06:59:12;;;;;;;4.57;0.83;;;;;;;;;;4959403;28;92069;-50
2023/05/24 07:01:41;;;;;;;0.50;0.50;;;;;;;;;;4958106;28;95390;-50
2023/05/24 07:04:10;;;;;;;1.87;0.63;;;;;;;;;;4954184;28;95476;-50
2023/05/24 07:06:38;;;;;;;2.10;0.63;;;;;;;;;;4948144;28;92034;-50
2023/05/24 07:09:09;;;;;;;3.80;0.70;;;;;;;;;;4957243;28;92383;-50
2023/05/24 07:11:37;;;;;;;1.90;0.70;;;;;;;;;;4957611;28;94289;-50
2023/05/24 07:14:05;;;;;;;3.60;0.87;;;;;;;;;;4957954;28;93864;-50
2023/05/24 07:16:35;;;;;;;3.20;1.03;;;;;;;;;;4956891;28;92101;-50
2023/05/24 07:19:04;;;;;;;3.20;1.00;;;;;;;;;;4957824;28;91268;-51
2023/05/24 07:21:32;;;;;;;2.47;0.73;;;;;;;;;;4957208;28;93318;-51
2023/05/24 07:24:00;;;;;;;1.10;0.50;;;;;;;;;;4958037;28;93789;-50
2023/05/24 07:26:29;;;;;;;2.67;0.73;;;;;;;;;;4948806;28;94217;-50
2023/05/24 07:28:57;;;;;;;3.77;1.03;;;;;;;;;;4952895;28;92067;-50
2023/05/24 07:31:26;;;;;;;1.10;1.00;;;;;;;;;;4951400;28;94287;-50
2023/05/24 07:33:56;;;;;;;2.03;0.77;;;;;;;;;;4950132;28;93762;-50
2023/05/24 07:36:24;;;;;;;6.87;0.90;;;;;;;;;;4959160;28;92340;-50
2023/05/24 07:38:53;;;;;;;2.43;0.67;;;;;;;;;;4959265;28;92027;-50
2023/05/24 07:41:22;;;;;;;0.90;0.70;;;;;;;;;;4959056;28;93340;-50
2023/05/24 07:43:50;;;;;;;3.43;0.80;;;;;;;;;;4959080;28;93841;-50
2023/05/24 07:46:18;;;;;;;3.83;0.53;;;;;;;;;;4959357;28;91936;-50
2023/05/24 07:48:47;;;;;;;0.50;0.50;;;;;;;;;;4959147;28;92019;-50
2023/05/24 07:51:16;;;;;;;1.37;0.80;;;;;;;;;;4938869;28;95203;-50
2023/05/24 07:53:45;;;;;;;2.40;0.57;;;;;;;;;;4945201;28;94880;-50
2023/05/24 07:56:13;;;;;;;1.27;0.77;;;;;;;;;;4962441;28;92083;-50
2023/05/24 07:58:45;;;;;;;0.83;0.70;;;;;;;;;;4962580;28;92056;-50
2023/05/24 08:01:14;;;;;;;0.73;0.50;;;;;;;;;;4962115;28;94298;-50
2023/05/24 08:03:42;;;;;;;2.77;0.67;;;;;;;;;;4962116;28;93965;-50
2023/05/24 08:06:10;;;;;;;5.90;1.07;;;;;;;;;;4961793;28;91881;-50
2023/05/24 08:08:40;;;;;;;2.87;0.70;;;;;;;;;;4962159;28;91158;-50
2023/05/24 08:11:09;;;;;;;0.57;0.47;;;;;;;;;;4962030;28;94229;-50
2023/05/24 08:13:37;;;;;;;3.43;0.60;;;;;;;;;;4961543;28;93777;-50
2023/05/24 08:16:06;;;;;;;1.20;0.70;;;;;;;;;;4961583;28;93020;-50
2023/05/24 08:18:34;;;;;;;1.23;0.77;;;;;;;;;;4961392;28;92132;-50
2023/05/24 08:21:03;;;;;;;1.47;0.60;;;;;;;;;;4949089;28;94183;-50
2023/05/24 08:23:32;;;;;;;0.47;0.47;;;;;;;;;;4961729;28;94030;-50
2023/05/24 08:26:02;;;;;;;1.80;0.50;;;;;;;;;;4950686;28;91976;-50
2023/05/24 08:28:30;;;;;;;0.73;0.60;;;;;;;;;;4952384;28;92080;-50
2023/05/24 08:30:59;;;;;;;6.30;0.30;;;;;;;;;;4961668;28;94404;-50
2023/05/24 08:33:27;;;;;;;1.23;0.53;;;;;;;;;;4961792;28;94097;-50
2023/05/24 08:35:56;;;;;;;1.10;0.60;;;;;;;;;;4961268;28;92192;-50
2023/05/24 08:38:24;;;;;;;1.70;0.70;;;;;;;;;;4960706;28;92411;-50
2023/05/24 08:40:53;;;;;;;4.00;0.90;;;;;;;;;;4961132;28;95119;-50
2023/05/24 08:43:22;;;;;;;1.27;0.67;;;;;;;;;;4960969;28;94981;-50
2023/05/24 08:45:51;;;;;;;3.27;0.63;;;;;;;;;;4961708;28;92052;-50
2023/05/24 08:48:19;;;;;;;3.03;0.40;;;;;;;;;;4961760;28;92085;-50
2023/05/24 08:50:48;;;;;;;0.47;0.43;;;;;;;;;;4961655;28;94299;-50
2023/05/24 08:53:18;;;;;;;1.97;0.57;;;;;;;;;;4961394;28;92985;-50
2023/05/24 08:55:47;;;;;;;0.77;0.47;;;;;;;;;;4961754;28;92068;-50
2023/05/24 08:58:15;;;;;;;2.73;0.60;;;;;;;;;;4961639;28;91470;-50
2023/05/24 09:00:45;;;;;;;2.33;0.50;;;;;;;;;;4961005;28;94377;-50
2023/05/24 09:03:13;;;;;;;2.33;0.60;;;;;;;;;;4960514;28;94072;-50
2023/05/24 09:05:42;;;;;;;1.10;0.77;;;;;;;;;;4969356;28;92958;-50
2023/05/24 09:08:10;;;;;;;2.43;0.77;;;;;;;;;;4980717;28;92057;-50
2023/05/24 09:10:39;;;;;;;0.67;0.50;;;;;;;;;;4979617;28;93192;-50
2023/05/24 09:13:21;;;;;;;0.37;0.30;;;;;;;;;;4979898;28;93762;-50
2023/05/24 09:15:51;;;;;;;4.00;0.53;;;;;;;;;;4980653;28;91891;-50
2023/05/24 09:18:19;;;;;;;1.03;0.47;;;;;;;;;;4960296;28;92148;-50
2023/05/24 09:20:48;;;;;;;0.93;0.50;;;;;;;;;;4960183;28;93128;-50
2023/05/24 09:23:16;;;;;;;0.93;0.57;;;;;;;;;;4960863;28;92878;-50
2023/05/24 09:25:45;;;;;;;0.30;0.30;;;;;;;;;;4960769;28;92046;-50
2023/05/24 09:28:14;;;;;;;0.83;0.57;;;;;;;;;;4960475;28;92251;-50
2023/05/24 09:30:43;;;;;;;0.50;0.50;;;;;;;;;;4960330;28;95156;-50
2023/05/24 09:33:13;;;;;;;3.83;0.63;;;;;;;;;;4960711;28;94859;-50
2023/05/24 09:35:43;;;;;;;1.23;0.70;;;;;;;;;;4960784;28;92203;-50
2023/05/24 09:38:18;;;;;;;0.80;0.80;;;;;;;;;;4960929;28;91876;-50
2023/05/24 09:40:46;;;;;;;0.30;0.30;;;;;;;;;;4960516;28;94102;-50
2023/05/24 09:43:15;;;;;;;0.90;0.50;;;;;;;;;;4959554;28;93764;-50
2023/05/24 09:45:45;;;;;;;0.60;0.50;;;;;;;;;;4960709;28;92081;-50
2023/05/24 09:48:15;;;;;;;0.90;0.77;;;;;;;;;;4960977;28;91299;-50
2023/05/24 09:50:46;;;;;;;1.97;0.83;;;;;;;;;;4959158;28;94101;-50
2023/05/24 09:53:17;;;;;;;2.50;1.00;;;;;;;;;;4959662;28;93743;-51
2023/05/24 09:55:47;;;;;;;4.10;0.70;;;;;;;;;;4959416;28;93061;-50
2023/05/24 09:58:16;;;;;;;0.67;0.50;;;;;;;;;;4958832;28;92119;-50
2023/05/24 10:00:44;;;;;;;5.77;0.60;;;;;;;;;;4960542;28;94347;-50
2023/05/24 10:03:15;;;;;;;4.67;1.10;;;;;;;;;;4959058;28;93822;-50
2023/05/24 10:05:45;;;;;;;4.33;1.00;;;;;;;;;;4959980;28;92039;-50
2023/05/24 10:08:14;;;;;;;0.83;0.50;;;;;;;;;;4960189;28;92159;-50
2023/05/24 10:10:43;;;;;;;1.03;0.70;;;;;;;;;;4960133;28;94157;-50
2023/05/24 10:13:14;;;;;;;1.50;0.63;;;;;;;;;;4960047;28;92777;-50
2023/05/24 10:15:43;;;;;;;0.77;0.43;;;;;;;;;;4960283;28;91911;-50
2023/05/24 10:18:11;;;;;;;2.33;1.03;;;;;;;;;;4960648;28;92093;-50
2023/05/24 10:20:43;;;;;;;1.43;0.50;;;;;;;;;;4959512;28;95249;-50
2023/05/24 10:23:12;;;;;;;2.07;1.00;;;;;;;;;;4959866;28;94726;-50
2023/05/24 10:25:42;;;;;;;0.50;0.50;;;;;;;;;;4958888;28;92152;-50
2023/05/24 10:28:11;;;;;;;0.67;0.67;;;;;;;;;;4959959;28;92052;-50
2023/05/24 10:30:42;;;;;;;0.50;0.40;;;;;;;;;;4959541;28;94206;-50
2023/05/24 10:33:12;;;;;;;221.00;44.97;;;;;;;;;;4959262;28;93902;-51
2023/05/24 10:35:41;;;;;;;113.00;45.07;;;;;;;;;;4956544;28;92096;-51
2023/05/24 10:38:11;;;;;;;108.53;41.17;;;;;;;;;;4959450;28;91319;-50
2023/05/24 10:40:42;;;;;;;88.77;33.43;;;;;;;;;;4958627;28;94345;-50
2023/05/24 10:43:10;;;;;;;86.67;33.40;;;;;;;;;;4958734;28;94160;-50
2023/05/24 10:45:39;;;;;;;79.60;28.30;;;;;;;;;;4958829;28;93015;-50
2023/05/24 10:48:26;;;;;;;59.80;22.03;;;;;;;;;;4959280;28;92051;-49
2023/05/24 10:50:54;;;;;;;54.80;20.57;;;;;;;;;;4958768;28;93289;-51
2023/05/24 10:53:26;;;;;;;44.63;18.37;;;;;;;;;;4958683;28;92961;-51
2023/05/24 10:55:55;;;;;;;37.43;16.17;;;;;;;;;;4959051;28;92137;-51
2023/05/24 10:58:24;;;;;;;34.63;15.50;;;;;;;;;;4957984;28;92185;-51
2023/05/24 11:00:52;;;;;;;30.53;13.47;;;;;;;;;;4958491;28;94421;-52
2023/05/24 11:03:23;;;;;;;39.17;13.63;;;;;;;;;;4958716;28;93967;-52
2023/05/24 11:05:53;;;;;;;25.63;11.00;;;;;;;;;;4959113;28;92109;-53
2023/05/24 11:08:25;;;;;;;21.30;9.77;;;;;;;;;;4958023;28;92832;-52
2023/05/24 11:11:04;;;;;;;14.37;8.50;;;;;;;;;;4958839;28;93900;-52
2023/05/24 11:13:50;;;;;;;17.43;7.70;;;;;;;;;;4959424;28;94801;-53
2023/05/24 11:16:33;;;;;;;17.50;9.27;;;;;;;;;;4959193;28;92133;-53
2023/05/24 11:19:05;;;;;;;18.97;6.50;;;;;;;;;;4959130;28;92132;-53
2023/05/24 11:21:34;;;;;;;19.53;6.90;;;;;;;;;;4959000;28;93170;-53
2023/05/24 11:24:04;;;;;;;9.60;4.93;;;;;;;;;;4959292;28;94024;-53
2023/05/24 11:26:32;;;;;;;15.57;5.47;;;;;;;;;;4958719;28;92067;-53
2023/05/24 11:29:01;;;;;;;8.17;4.53;;;;;;;;;;4962222;28;91337;-53
2023/05/24 11:31:32;;;;;;;8.90;3.43;;;;;;;;;;4962488;28;94423;-53
2023/05/24 11:34:01;;;;;;;5.07;3.50;;;;;;;;;;4962620;28;93893;-53
2023/05/24 11:36:30;;;;;;;7.40;4.17;;;;;;;;;;4959970;28;93069;-53
2023/05/24 11:38:58;;;;;;;11.70;3.90;;;;;;;;;;4962100;28;92096;-53
2023/05/24 11:41:28;;;;;;;6.57;3.27;;;;;;;;;;4961224;28;94207;-53
2023/05/24 11:43:56;;;;;;;3.77;2.73;;;;;;;;;;4960820;28;93900;-53
2023/05/24 11:46:25;;;;;;;9.53;3.57;;;;;;;;;;4962519;28;92074;-53
2023/05/24 11:48:57;;;;;;;6.47;3.40;;;;;;;;;;4962326;28;92091;-53
2023/05/24 11:51:28;;;;;;;6.27;3.43;;;;;;;;;;4961660;28;94217;-53
2023/05/24 11:53:57;;;;;;;9.20;2.67;;;;;;;;;;4960395;28;93862;-53
2023/05/24 11:56:26;;;;;;;5.33;2.30;;;;;;;;;;4962064;28;91964;-53
2023/05/24 11:59:00;;;;;;;4.53;2.43;;;;;;;;;;4961769;28;92190;-53
2023/05/24 12:01:29;;;;;;;6.97;2.53;;;;;;;;;;4961109;28;94193;-53
2023/05/24 12:03:57;;;;;;;5.57;2.80;;;;;;;;;;4961407;28;95032;-53
2023/05/24 12:06:26;;;;;;;4.40;2.23;;;;;;;;;;4962133;28;92001;-53
2023/05/24 12:08:54;;;;;;;3.17;1.97;;;;;;;;;;4961376;28;92099;-54
2023/05/24 12:11:23;;;;;;;2.50;1.73;;;;;;;;;;4961641;28;94706;-54
2023/05/24 12:13:51;;;;;;;5.63;1.93;;;;;;;;;;4961894;28;94044;-54
2023/05/24 12:16:21;;;;;;;2.10;1.13;;;;;;;;;;4961780;28;92078;-53
2023/05/24 12:18:50;;;;;;;3.30;1.70;;;;;;;;;;4961456;28;91333;-54
2023/05/24 12:21:33;;;;;;;4.17;2.10;;;;;;;;;;4961478;28;94310;-54
2023/05/24 12:24:06;;;;;;;3.13;1.57;;;;;;;;;;4961429;28;94081;-53
2023/05/24 12:26:36;;;;;;;4.80;1.43;;;;;;;;;;4960385;28;93110;-53
2023/05/24 12:29:05;;;;;;;5.13;1.33;;;;;;;;;;4961409;28;91943;-53
2023/05/24 12:31:36;;;;;;;3.30;1.47;;;;;;;;;;4961432;28;94136;-53
2023/05/24 12:34:06;;;;;;;4.30;1.57;;;;;;;;;;4961416;28;93880;-53
2023/05/24 12:36:35;;;;;;;2.73;1.20;;;;;;;;;;4959361;28;92125;-53
2023/05/24 12:39:20;;;;;;;1.13;0.97;;;;;;;;;;4961584;28;92098;-54
2023/05/24 12:41:52;;;;;;;2.30;1.00;;;;;;;;;;4960806;28;94152;-53
2023/05/24 12:44:25;;;;;;;6.63;1.13;;;;;;;;;;4961433;28;93888;-53
2023/05/24 12:46:55;;;;;;;2.43;1.10;;;;;;;;;;4961727;28;92147;-53
2023/05/24 12:49:24;;;;;;;2.10;0.80;;;;;;;;;;4961686;28;92120;-53
2023/05/24 12:51:53;;;;;;;4.30;1.00;;;;;;;;;;4960219;28;94024;-53
2023/05/24 12:54:23;;;;;;;4.07;1.10;;;;;;;;;;4960948;28;94853;-53
2023/05/24 12:56:52;;;;;;;2.60;1.23;;;;;;;;;;4961465;28;92388;-53
2023/05/24 12:59:24;;;;;;;2.53;1.00;;;;;;;;;;4961603;28;91999;-53
2023/05/24 13:01:52;;;;;;;2.60;0.90;;;;;;;;;;4961359;28;94399;-53
2023/05/24 13:04:24;;;;;;;3.30;0.83;;;;;;;;;;4961180;28;93871;-53
2023/05/24 13:06:53;;;;;;;4.10;1.23;;;;;;;;;;4961809;28;92154;-53
2023/05/24 13:09:21;;;;;;;2.80;0.93;;;;;;;;;;4961806;28;91304;-53
2023/05/24 13:11:52;;;;;;;3.60;0.90;;;;;;;;;;4960868;28;94172;-53
2023/05/24 13:14:21;;;;;;;0.97;0.77;;;;;;;;;;4961094;28;92833;-53
2023/05/24 13:16:50;;;;;;;6.53;0.77;;;;;;;;;;4960665;28;92744;-54
2023/05/24 13:19:18;;;;;;;1.73;0.90;;;;;;;;;;4961060;28;92090;-53
2023/05/24 13:21:48;;;;;;;1.07;0.83;;;;;;;;;;4961155;28;94115;-53
2023/05/24 13:24:18;;;;;;;2.37;0.90;;;;;;;;;;4960684;28;93927;-53
2023/05/24 13:26:47;;;;;;;3.33;0.97;;;;;;;;;;4960977;28;92122;-53
2023/05/24 13:29:15;;;;;;;1.33;0.93;;;;;;;;;;4961140;28;91997;-53
2023/05/24 13:31:46;;;;;;;0.93;0.63;;;;;;;;;;4960848;28;93729;-53
2023/05/24 13:34:16;;;;;;;3.83;0.83;;;;;;;;;;4960987;28;93903;-53
2023/05/24 13:36:45;;;;;;;1.87;0.90;;;;;;;;;;4960617;28;92075;-53
2023/05/24 13:39:15;;;;;;;1.80;0.97;;;;;;;;;;4960692;28;92028;-53
2023/05/24 13:41:44;;;;;;;0.60;0.60;;;;;;;;;;4959693;28;94110;-53
2023/05/24 13:44:13;;;;;;;3.30;0.80;;;;;;;;;;4960336;28;94738;-53
2023/05/24 13:46:41;;;;;;;1.63;0.80;;;;;;;;;;4960707;28;92718;-53
2023/05/24 13:49:10;;;;;;;2.40;0.60;;;;;;;;;;4960722;28;91976;-53
2023/05/24 13:51:39;;;;;;;3.63;0.90;;;;;;;;;;4959674;28;94291;-53
2023/05/24 13:54:08;;;;;;;1.07;0.70;;;;;;;;;;4960019;28;93448;-53
2023/05/24 13:56:38;;;;;;;1.13;0.80;;;;;;;;;;4960330;28;92083;-53
2023/05/24 13:59:07;;;;;;;0.90;0.80;;;;;;;;;;4961294;28;91360;-53
2023/05/24 14:01:37;;;;;;;0.77;0.50;;;;;;;;;;4959281;28;93123;-53
2023/05/24 14:04:06;;;;;;;1.63;0.90;;;;;;;;;;4960436;28;93983;-52
2023/05/24 14:06:36;;;;;;;1.50;0.80;;;;;;;;;;4959987;28;92979;-53
2023/05/24 14:09:07;;;;;;;1.80;0.80;;;;;;;;;;4960482;28;92154;-53
2023/05/24 14:11:36;;;;;;;3.33;0.97;;;;;;;;;;4959197;28;93025;-53
2023/05/24 14:14:05;;;;;;;1.30;0.60;;;;;;;;;;4959637;28;93846;-54
2023/05/24 14:16:54;;;;;;;2.00;0.80;;;;;;;;;;4959588;28;92150;-54
2023/05/24 14:19:24;;;;;;;2.43;0.60;;;;;;;;;;4960070;28;92201;-54
2023/05/24 14:21:53;;;;;;;3.37;0.93;;;;;;;;;;4960219;28;94242;-53
2023/05/24 14:24:22;;;;;;;0.50;0.50;;;;;;;;;;4959846;28;93971;-53
2023/05/24 14:26:51;;;;;;;2.73;0.80;;;;;;;;;;4974894;28;92129;-54
2023/05/24 14:29:20;;;;;;;1.43;0.80;;;;;;;;;;4960187;28;92028;-54
2023/05/24 14:31:49;;;;;;;1.73;0.73;;;;;;;;;;4958663;28;94098;-53
2023/05/24 14:34:18;;;;;;;2.30;0.80;;;;;;;;;;4959401;28;93660;-52
2023/05/24 14:36:47;;;;;;;2.97;0.70;;;;;;;;;;4959388;28;92049;-54
2023/05/24 14:39:16;;;;;;;3.23;1.33;;;;;;;;;;4960023;28;92060;-53
2023/05/24 14:41:45;;;;;;;3.27;0.80;;;;;;;;;;4958989;28;94472;-53
2023/05/24 14:44:13;;;;;;;2.50;0.57;;;;;;;;;;4959608;28;92748;-53
2023/05/24 14:46:43;;;;;;;2.47;0.60;;;;;;;;;;4959910;28;92068;-54
2023/05/24 14:49:12;;;;;;;2.13;0.93;;;;;;;;;;4960514;28;91397;-53
2023/05/24 14:51:40;;;;;;;3.80;1.00;;;;;;;;;;4959869;28;94258;-53
2023/05/24 14:54:11;;;;;;;3.60;1.00;;;;;;;;;;4959553;28;93986;-53